Time;durP1;ratioP1;P1;durP2;ratioP2;P2;SDS_P1;SDS_P2;PMS_P1;PMS_P2;Temp;Humidity;BMP_temperature;BMP_pressure;BME280_temperature;BME280_humidity;BME280_pressure;Samples;Min_cycle;Max_cycle;Signal;HPM_P1;HPM_P2
2023/03/31 00:00:10;;;;;;;5.57;2.03;;;;;;;;;;5108284;28;20054;-76
2023/03/31 00:02:41;;;;;;;4.47;1.92;;;;;;;;;;5108289;28;20063;-76
2023/03/31 00:05:16;;;;;;;6.72;2.45;;;;;;;;;;5108820;28;20047;-77
2023/03/31 00:08:06;;;;;;;6.05;2.10;;;;;;;;;;5107427;28;20056;-77
2023/03/31 00:10:36;;;;;;;5.03;2.10;;;;;;;;;;5108720;28;20072;-76
2023/03/31 00:13:07;;;;;;;5.85;2.45;;;;;;;;;;5108234;28;20415;-77
2023/03/31 00:15:38;;;;;;;4.07;2.25;;;;;;;;;;5108646;28;20529;-77
2023/03/31 00:18:08;;;;;;;3.53;2.13;;;;;;;;;;5108684;28;20047;-76
2023/03/31 00:20:41;;;;;;;6.93;2.20;;;;;;;;;;5109022;28;20048;-77
2023/03/31 00:23:13;;;;;;;6.28;2.40;;;;;;;;;;5107245;28;20063;-77
2023/03/31 00:25:44;;;;;;;6.85;2.45;;;;;;;;;;5108124;28;20051;-77
2023/03/31 00:28:14;;;;;;;5.43;2.35;;;;;;;;;;5107674;28;20043;-74
2023/03/31 00:30:46;;;;;;;3.88;2.45;;;;;;;;;;5109008;28;20056;-77
2023/03/31 00:33:17;;;;;;;12.07;2.90;;;;;;;;;;5108069;28;20036;-78
2023/03/31 00:35:51;;;;;;;4.57;2.20;;;;;;;;;;5088420;28;20047;-77
2023/03/31 00:38:23;;;;;;;3.47;2.00;;;;;;;;;;5108161;28;20040;-78
2023/03/31 00:40:53;;;;;;;3.28;2.00;;;;;;;;;;5108104;28;20497;-75
2023/03/31 00:43:36;;;;;;;7.05;2.67;;;;;;;;;;5108033;28;20146;-77
2023/03/31 00:46:32;;;;;;;4.28;2.40;;;;;;;;;;5089189;28;20048;-77
2023/03/31 00:49:03;;;;;;;5.63;2.53;;;;;;;;;;5089248;28;20055;-77
2023/03/31 00:51:34;;;;;;;4.75;1.92;;;;;;;;;;5107796;28;20409;-75
2023/03/31 00:54:07;;;;;;;3.95;2.33;;;;;;;;;;5107811;28;20532;-75
2023/03/31 00:56:40;;;;;;;5.03;1.95;;;;;;;;;;5107540;28;20043;-76
2023/03/31 00:59:12;;;;;;;3.75;1.80;;;;;;;;;;5107500;28;20573;-75
2023/03/31 01:01:47;;;;;;;4.15;2.05;;;;;;;;;;5107589;28;20047;-75
2023/03/31 01:04:21;;;;;;;5.97;2.28;;;;;;;;;;5108389;28;20054;-78
2023/03/31 01:07:21;;;;;;;8.95;2.50;;;;;;;;;;5107787;28;20052;-78
2023/03/31 01:09:58;;;;;;;4.00;2.42;;;;;;;;;;5101259;28;20163;-78
2023/03/31 01:12:31;;;;;;;2.97;2.03;;;;;;;;;;5106008;28;20048;-76
2023/03/31 01:15:03;;;;;;;7.50;2.65;;;;;;;;;;5087808;28;20047;-76
2023/03/31 01:17:34;;;;;;;5.55;2.35;;;;;;;;;;5106891;28;20059;-77
2023/03/31 01:20:20;;;;;;;5.28;2.35;;;;;;;;;;5106684;28;20051;-76
2023/03/31 01:23:28;;;;;;;5.18;2.00;;;;;;;;;;5088523;28;20055;-79
2023/03/31 01:26:11;;;;;;;9.18;2.60;;;;;;;;;;5107484;28;20506;-77
2023/03/31 01:29:02;;;;;;;7.35;2.20;;;;;;;;;;5097852;28;20053;-77
2023/03/31 01:32:09;;;;;;;5.63;2.55;;;;;;;;;;5096255;28;20521;-78
2023/03/31 01:35:00;;;;;;;7.55;2.45;;;;;;;;;;5078735;28;20051;-77
2023/03/31 01:38:03;;;;;;;8.13;2.63;;;;;;;;;;5077308;28;20437;-77
2023/03/31 01:40:40;;;;;;;5.30;2.25;;;;;;;;;;5094363;28;20044;-77
2023/03/31 01:43:18;;;;;;;6.57;2.28;;;;;;;;;;5095420;28;20036;-76
2023/03/31 01:45:55;;;;;;;4.88;2.10;;;;;;;;;;5096082;28;20040;-77
2023/03/31 01:48:29;;;;;;;6.22;2.58;;;;;;;;;;5098402;28;20044;-79
2023/03/31 01:51:27;;;;;;;4.07;2.08;;;;;;;;;;5099712;28;20039;-79
2023/03/31 01:54:43;;;;;;;9.25;2.33;;;;;;;;;;5084568;28;20067;-78
2023/03/31 01:57:54;;;;;;;6.68;2.17;;;;;;;;;;5018516;28;20049;-79
2023/03/31 02:00:32;;;;;;;4.32;2.22;;;;;;;;;;5007213;28;20050;-76
2023/03/31 02:03:15;;;;;;;3.15;2.13;;;;;;;;;;5088411;28;20143;-77
2023/03/31 02:05:55;;;;;;;8.70;2.75;;;;;;;;;;5098946;28;20032;-76
2023/03/31 02:08:40;;;;;;;7.15;2.50;;;;;;;;;;5099029;28;20067;-77
2023/03/31 02:11:12;;;;;;;9.85;2.58;;;;;;;;;;5081255;28;20067;-79
2023/03/31 02:13:47;;;;;;;7.90;2.03;;;;;;;;;;5098948;28;20044;-77
2023/03/31 02:16:23;;;;;;;5.70;2.15;;;;;;;;;;5099567;28;20039;-78
2023/03/31 02:19:01;;;;;;;4.82;2.20;;;;;;;;;;5099596;28;20048;-79
2023/03/31 02:21:39;;;;;;;4.30;1.98;;;;;;;;;;5079510;28;20052;-78
2023/03/31 02:24:13;;;;;;;4.50;2.13;;;;;;;;;;5099112;28;20830;-78
2023/03/31 02:26:56;;;;;;;11.25;2.40;;;;;;;;;;5098852;28;20334;-77
2023/03/31 02:29:27;;;;;;;4.15;2.28;;;;;;;;;;5080062;28;20387;-79
2023/03/31 02:32:21;;;;;;;5.30;2.25;;;;;;;;;;5101276;28;20032;-78
2023/03/31 02:34:54;;;;;;;6.63;2.35;;;;;;;;;;5090904;28;20543;-77
2023/03/31 02:37:27;;;;;;;3.80;2.22;;;;;;;;;;5109673;28;20651;-76
2023/03/31 02:40:00;;;;;;;3.55;2.38;;;;;;;;;;5109654;28;20052;-76
2023/03/31 02:42:31;;;;;;;10.05;2.50;;;;;;;;;;5091271;28;20043;-78
2023/03/31 02:45:05;;;;;;;7.32;2.28;;;;;;;;;;5091023;28;20078;-78
2023/03/31 02:47:36;;;;;;;6.55;2.30;;;;;;;;;;5091499;28;20047;-77
2023/03/31 02:50:09;;;;;;;9.10;2.40;;;;;;;;;;5090648;28;20510;-79
2023/03/31 02:52:55;;;;;;;6.75;2.25;;;;;;;;;;5090769;28;20052;-77
2023/03/31 02:56:10;;;;;;;12.10;3.15;;;;;;;;;;5090691;28;20040;-79
2023/03/31 02:58:54;;;;;;;3.83;2.40;;;;;;;;;;5090584;28;20051;-77
2023/03/31 03:01:34;;;;;;;6.43;2.33;;;;;;;;;;5091552;28;20078;-77
2023/03/31 03:04:34;;;;;;;4.47;2.55;;;;;;;;;;5109851;28;20062;-76
2023/03/31 03:07:42;;;;;;;5.80;2.97;;;;;;;;;;5090897;28;20059;-79
2023/03/31 03:10:31;;;;;;;4.40;2.30;;;;;;;;;;5090974;28;20498;-76
2023/03/31 03:13:27;;;;;;;7.32;2.42;;;;;;;;;;5108973;28;20050;-76
2023/03/31 03:16:17;;;;;;;5.68;2.03;;;;;;;;;;5109661;28;20047;-79
2023/03/31 03:18:59;;;;;;;6.50;2.83;;;;;;;;;;5090974;28;20825;-79
2023/03/31 03:21:31;;;;;;;4.32;2.40;;;;;;;;;;5109169;28;20051;-78
2023/03/31 03:24:02;;;;;;;6.28;2.38;;;;;;;;;;5109124;28;20043;-79
2023/03/31 03:26:34;;;;;;;5.03;2.47;;;;;;;;;;5109872;28;20035;-77
2023/03/31 03:29:04;;;;;;;5.63;2.78;;;;;;;;;;5091427;28;20055;-79
2023/03/31 03:31:35;;;;;;;3.30;2.35;;;;;;;;;;5108828;28;20043;-77
2023/03/31 03:34:05;;;;;;;5.75;2.88;;;;;;;;;;5108137;28;20059;-77
2023/03/31 03:36:37;;;;;;;5.03;2.40;;;;;;;;;;5108691;28;20051;-78
2023/03/31 03:39:08;;;;;;;8.38;2.58;;;;;;;;;;5108532;28;20410;-78
2023/03/31 03:41:39;;;;;;;10.00;2.50;;;;;;;;;;5108920;28;20055;-78
2023/03/31 03:44:09;;;;;;;5.88;2.50;;;;;;;;;;5090699;28;20534;-77
2023/03/31 03:46:39;;;;;;;4.47;2.25;;;;;;;;;;5108917;28;20513;-76
2023/03/31 03:49:10;;;;;;;4.45;2.53;;;;;;;;;;5108985;28;20044;-77
2023/03/31 03:51:42;;;;;;;4.70;2.17;;;;;;;;;;5090618;28;20044;-79
2023/03/31 03:54:12;;;;;;;8.27;2.45;;;;;;;;;;5109229;28;20047;-77
2023/03/31 03:56:42;;;;;;;15.02;2.63;;;;;;;;;;5108923;28;20047;-76
2023/03/31 03:59:13;;;;;;;3.70;2.30;;;;;;;;;;5107571;28;20055;-77
2023/03/31 04:01:44;;;;;;;8.93;2.65;;;;;;;;;;5108770;28;20383;-78
2023/03/31 04:04:14;;;;;;;7.32;2.42;;;;;;;;;;5108448;28;20072;-77
2023/03/31 04:06:44;;;;;;;13.90;2.60;;;;;;;;;;5108448;28;20064;-79
2023/03/31 04:09:15;;;;;;;9.73;2.40;;;;;;;;;;5108617;28;20048;-78
2023/03/31 04:11:45;;;;;;;5.50;2.85;;;;;;;;;;5106254;28;20051;-77
2023/03/31 04:14:16;;;;;;;10.77;2.90;;;;;;;;;;5108107;28;20052;-78
2023/03/31 04:16:47;;;;;;;5.70;2.83;;;;;;;;;;5108254;28;20063;-76
2023/03/31 04:19:17;;;;;;;8.07;2.30;;;;;;;;;;5108314;28;20505;-76
2023/03/31 04:21:57;;;;;;;9.35;2.70;;;;;;;;;;5108275;28;20546;-78
2023/03/31 04:24:31;;;;;;;5.50;2.58;;;;;;;;;;5108890;28;20074;-77
2023/03/31 04:27:03;;;;;;;9.13;2.45;;;;;;;;;;5108650;28;20051;-79
2023/03/31 04:29:36;;;;;;;5.18;2.88;;;;;;;;;;5108380;28;20149;-76
2023/03/31 04:32:06;;;;;;;5.40;2.65;;;;;;;;;;5107918;28;20051;-79
2023/03/31 04:34:37;;;;;;;5.95;2.70;;;;;;;;;;5107816;28;20043;-79
2023/03/31 04:37:09;;;;;;;5.45;2.70;;;;;;;;;;5108369;28;20059;-76
2023/03/31 04:39:40;;;;;;;4.93;2.25;;;;;;;;;;5107535;28;20477;-77
2023/03/31 04:42:10;;;;;;;6.32;2.63;;;;;;;;;;5107852;28;20414;-76
2023/03/31 04:44:40;;;;;;;8.23;2.50;;;;;;;;;;5107661;28;20506;-76
2023/03/31 04:47:11;;;;;;;6.15;3.25;;;;;;;;;;5089282;28;20437;-77
2023/03/31 04:49:41;;;;;;;9.13;2.75;;;;;;;;;;5107875;28;20039;-79
2023/03/31 04:52:11;;;;;;;8.15;3.22;;;;;;;;;;5089374;28;20772;-80
2023/03/31 04:54:41;;;;;;;11.25;3.20;;;;;;;;;;5107530;28;20361;-76
2023/03/31 04:57:13;;;;;;;9.25;2.92;;;;;;;;;;5107732;28;20047;-77
2023/03/31 04:59:43;;;;;;;10.25;2.75;;;;;;;;;;5107422;28;20043;-78
2023/03/31 05:02:20;;;;;;;7.93;2.88;;;;;;;;;;5107106;28;20490;-80
2023/03/31 05:04:53;;;;;;;6.40;2.30;;;;;;;;;;5107327;28;20044;-77
2023/03/31 05:07:23;;;;;;;6.32;2.95;;;;;;;;;;5106786;28;20044;-77
2023/03/31 05:09:54;;;;;;;7.88;3.08;;;;;;;;;;5107576;28;20039;-78
2023/03/31 05:12:25;;;;;;;10.55;2.92;;;;;;;;;;5107398;28;20048;-80
2023/03/31 05:14:54;;;;;;;11.95;2.85;;;;;;;;;;5088513;28;20052;-78
2023/03/31 05:17:24;;;;;;;6.15;2.67;;;;;;;;;;5107240;28;20052;-76
2023/03/31 05:19:55;;;;;;;8.75;2.65;;;;;;;;;;5107391;28;20513;-76
2023/03/31 05:22:27;;;;;;;10.93;4.03;;;;;;;;;;5106610;28;20501;-78
2023/03/31 05:24:57;;;;;;;10.00;3.10;;;;;;;;;;5106893;28;20048;-79
2023/03/31 05:27:27;;;;;;;11.13;3.47;;;;;;;;;;5106514;28;20509;-78
2023/03/31 05:29:57;;;;;;;9.50;3.40;;;;;;;;;;5106951;28;20048;-76
2023/03/31 05:32:28;;;;;;;11.98;3.78;;;;;;;;;;5106876;28;20051;-79
2023/03/31 05:34:58;;;;;;;7.65;3.65;;;;;;;;;;5106674;28;20608;-76
2023/03/31 05:37:29;;;;;;;12.02;3.03;;;;;;;;;;5088903;28;20047;-78
2023/03/31 05:39:59;;;;;;;6.95;2.65;;;;;;;;;;5106886;28;20050;-76
2023/03/31 05:42:29;;;;;;;10.77;2.80;;;;;;;;;;5106836;28;20071;-76
2023/03/31 05:45:00;;;;;;;8.88;2.97;;;;;;;;;;5106686;28;20047;-78
2023/03/31 05:47:31;;;;;;;8.55;3.17;;;;;;;;;;5107255;28;20050;-80
2023/03/31 05:50:02;;;;;;;6.57;2.97;;;;;;;;;;5106849;28;20487;-79
2023/03/31 05:52:33;;;;;;;9.45;3.05;;;;;;;;;;5107000;28;20044;-78
2023/03/31 05:55:05;;;;;;;9.55;3.08;;;;;;;;;;5106112;28;20114;-76
2023/03/31 05:57:35;;;;;;;7.32;3.08;;;;;;;;;;5087479;28;20040;-79
2023/03/31 06:00:09;;;;;;;7.35;3.50;;;;;;;;;;5106779;28;20553;-78
2023/03/31 06:02:40;;;;;;;13.88;3.05;;;;;;;;;;5106573;28;20063;-78
2023/03/31 06:05:12;;;;;;;12.02;2.95;;;;;;;;;;5106466;28;20043;-80
2023/03/31 06:07:43;;;;;;;7.30;3.33;;;;;;;;;;5106153;28;20046;-79
2023/03/31 06:10:13;;;;;;;9.50;3.33;;;;;;;;;;5106759;28;20044;-77
2023/03/31 06:12:43;;;;;;;10.10;2.50;;;;;;;;;;5106660;28;20048;-76
2023/03/31 06:15:14;;;;;;;8.52;3.63;;;;;;;;;;5106886;28;20066;-78
2023/03/31 06:17:45;;;;;;;7.40;3.35;;;;;;;;;;5107015;28;20039;-81
2023/03/31 06:20:16;;;;;;;7.75;2.88;;;;;;;;;;5106464;28;20055;-78
2023/03/31 06:22:56;;;;;;;6.20;3.00;;;;;;;;;;5106796;28;20047;-77
2023/03/31 06:25:26;;;;;;;6.82;2.80;;;;;;;;;;5106164;28;20055;-78
2023/03/31 06:28:08;;;;;;;7.35;3.13;;;;;;;;;;5106315;28;20047;-76
2023/03/31 06:30:39;;;;;;;5.15;3.15;;;;;;;;;;5106465;28;20044;-77
2023/03/31 06:33:12;;;;;;;6.00;3.97;;;;;;;;;;5106699;28;20039;-80
2023/03/31 06:35:42;;;;;;;4.65;2.70;;;;;;;;;;5109758;28;20051;-79
2023/03/31 06:38:13;;;;;;;12.27;3.22;;;;;;;;;;5110197;28;20429;-76
2023/03/31 06:40:44;;;;;;;13.65;3.15;;;;;;;;;;5091226;28;20063;-77
2023/03/31 06:43:13;;;;;;;8.52;2.97;;;;;;;;;;5110097;28;20395;-77
2023/03/31 06:45:44;;;;;;;8.75;3.10;;;;;;;;;;5091809;28;20066;-78
2023/03/31 06:48:14;;;;;;;8.77;3.38;;;;;;;;;;5091476;28;20083;-76
2023/03/31 06:50:46;;;;;;;11.10;2.85;;;;;;;;;;5110298;28;20391;-78
2023/03/31 06:53:17;;;;;;;5.72;2.97;;;;;;;;;;5092470;28;20047;-79
2023/03/31 06:55:48;;;;;;;10.57;3.45;;;;;;;;;;5109626;28;20058;-79
2023/03/31 06:58:18;;;;;;;13.00;3.28;;;;;;;;;;5109643;28;20051;-75
2023/03/31 07:00:49;;;;;;;13.93;3.35;;;;;;;;;;5110019;28;20074;-78
2023/03/31 07:03:23;;;;;;;5.60;3.33;;;;;;;;;;5110030;28;20050;-76
2023/03/31 07:05:54;;;;;;;5.20;3.00;;;;;;;;;;5109237;28;20052;-76
2023/03/31 07:08:25;;;;;;;6.55;3.10;;;;;;;;;;5109943;28;20052;-78
2023/03/31 07:10:57;;;;;;;6.50;3.15;;;;;;;;;;5074292;28;20387;-75
2023/03/31 07:13:29;;;;;;;13.02;3.08;;;;;;;;;;5110614;28;20414;-77
2023/03/31 07:15:59;;;;;;;9.07;3.03;;;;;;;;;;5109605;28;20535;-76
2023/03/31 07:18:31;;;;;;;7.93;3.10;;;;;;;;;;5109205;28;20055;-77
2023/03/31 07:21:06;;;;;;;8.15;3.00;;;;;;;;;;5109605;28;20039;-80
2023/03/31 07:23:39;;;;;;;6.85;3.30;;;;;;;;;;5109177;28;20047;-77
2023/03/31 07:26:10;;;;;;;9.13;3.10;;;;;;;;;;5108227;28;20689;-77
2023/03/31 07:28:40;;;;;;;9.80;3.92;;;;;;;;;;5107889;28;20051;-78
2023/03/31 07:31:13;;;;;;;11.32;3.05;;;;;;;;;;5109126;28;20062;-77
2023/03/31 07:33:44;;;;;;;5.93;2.83;;;;;;;;;;5109348;28;20036;-78
2023/03/31 07:36:14;;;;;;;6.25;3.40;;;;;;;;;;5109354;28;20051;-79
2023/03/31 07:38:48;;;;;;;8.98;3.00;;;;;;;;;;5109064;28;20048;-77
2023/03/31 07:41:21;;;;;;;8.38;3.28;;;;;;;;;;5109311;28;20060;-76
2023/03/31 07:43:52;;;;;;;7.40;3.75;;;;;;;;;;5108687;28;20047;-78
2023/03/31 07:46:25;;;;;;;14.35;4.50;;;;;;;;;;5091449;28;20047;-76
2023/03/31 07:48:57;;;;;;;9.27;3.50;;;;;;;;;;5108432;28;20047;-77
2023/03/31 07:51:28;;;;;;;4.10;2.88;;;;;;;;;;5108946;28;20055;-78
2023/03/31 07:53:59;;;;;;;6.88;3.60;;;;;;;;;;5108789;28;20494;-77
2023/03/31 07:56:29;;;;;;;9.10;3.35;;;;;;;;;;5108764;28;20051;-76
2023/03/31 07:58:59;;;;;;;8.48;3.10;;;;;;;;;;5108342;28;20055;-78
2023/03/31 08:01:31;;;;;;;6.45;2.90;;;;;;;;;;5108440;28;20044;-77
2023/03/31 08:04:02;;;;;;;6.50;2.90;;;;;;;;;;5108999;28;20051;-78
2023/03/31 08:06:33;;;;;;;6.75;3.35;;;;;;;;;;5108149;28;20062;-77
2023/03/31 08:09:05;;;;;;;7.47;3.05;;;;;;;;;;5108765;28;20040;-78
2023/03/31 08:11:37;;;;;;;5.38;2.42;;;;;;;;;;5091306;28;20498;-78
2023/03/31 08:14:08;;;;;;;7.55;3.25;;;;;;;;;;5108301;28;20039;-77
2023/03/31 08:16:38;;;;;;;10.85;3.00;;;;;;;;;;5108231;28;20054;-76
2023/03/31 08:19:08;;;;;;;6.70;3.45;;;;;;;;;;5090198;28;20047;-76
2023/03/31 08:21:38;;;;;;;9.90;3.47;;;;;;;;;;5107904;28;20410;-77
2023/03/31 08:24:09;;;;;;;9.63;3.00;;;;;;;;;;5108397;28;20418;-76
2023/03/31 08:26:40;;;;;;;8.15;3.00;;;;;;;;;;5107799;28;20044;-75
2023/03/31 08:29:12;;;;;;;7.18;3.03;;;;;;;;;;5090252;28;20035;-78
2023/03/31 08:31:43;;;;;;;9.73;3.38;;;;;;;;;;5107516;28;20044;-76
2023/03/31 08:34:14;;;;;;;10.40;3.53;;;;;;;;;;5108189;28;20043;-76
2023/03/31 08:36:46;;;;;;;11.25;2.92;;;;;;;;;;5108491;28;20044;-76
2023/03/31 08:39:17;;;;;;;7.97;4.75;;;;;;;;;;5107818;28;20051;-77
2023/03/31 08:41:51;;;;;;;6.93;3.55;;;;;;;;;;5107739;28;20039;-78
2023/03/31 08:44:40;;;;;;;10.20;3.85;;;;;;;;;;5107799;28;20047;-76
2023/03/31 08:47:17;;;;;;;9.07;3.90;;;;;;;;;;5107911;28;20054;-76
2023/03/31 08:49:55;;;;;;;7.38;3.00;;;;;;;;;;5089898;28;20044;-77
2023/03/31 08:52:52;;;;;;;6.80;3.17;;;;;;;;;;5106985;28;20510;-77
2023/03/31 08:55:31;;;;;;;8.00;3.13;;;;;;;;;;5107260;28;20047;-76
2023/03/31 08:58:13;;;;;;;8.18;3.03;;;;;;;;;;5106741;28;20039;-77
2023/03/31 09:00:57;;;;;;;8.82;3.78;;;;;;;;;;5107177;28;20043;-78
2023/03/31 09:03:48;;;;;;;8.25;3.63;;;;;;;;;;5108473;28;20046;-76
2023/03/31 09:06:48;;;;;;;7.10;3.45;;;;;;;;;;5096030;28;20068;-75
2023/03/31 09:09:35;;;;;;;8.07;3.35;;;;;;;;;;5100031;28;20055;-76
2023/03/31 09:12:12;;;;;;;10.75;2.90;;;;;;;;;;5107275;28;20410;-76
2023/03/31 09:14:54;;;;;;;5.47;3.05;;;;;;;;;;5107291;28;20051;-76
2023/03/31 09:17:26;;;;;;;;;;;;;;;;;;5107940;28;20062;-76
2023/03/31 09:20:14;;;;;;;8.35;2.95;;;;;;;;;;5107374;28;20393;-76
2023/03/31 09:22:48;;;;;;;;;;;;;;;;;;5107785;28;20411;-77
2023/03/31 09:25:18;;;;;;;4.45;3.22;;;;;;;;;;5107180;28;19920;-77
2023/03/31 09:27:50;;;;;;;7.25;3.00;;;;;;;;;;5106918;28;20071;-77
2023/03/31 09:30:33;;;;;;;9.32;2.80;;;;;;;;;;5107697;28;20490;-75
2023/03/31 09:33:31;;;;;;;9.35;3.88;;;;;;;;;;5107025;28;20036;-77
2023/03/31 09:36:05;;;;;;;8.68;2.70;;;;;;;;;;5106156;28;20055;-76
2023/03/31 09:38:38;;;;;;;6.50;3.30;;;;;;;;;;5106505;28;20406;-77
2023/03/31 09:41:10;;;;;;;7.63;3.30;;;;;;;;;;5107012;28;20066;-77
2023/03/31 09:43:42;;;;;;;10.70;3.35;;;;;;;;;;5107140;28;20536;-77
2023/03/31 09:46:34;;;;;;;5.70;3.05;;;;;;;;;;5088154;28;20055;-76
2023/03/31 09:49:18;;;;;;;11.95;3.80;;;;;;;;;;5088885;28;20051;-75
2023/03/31 09:52:03;;;;;;;7.47;3.70;;;;;;;;;;5106530;28;20062;-77
2023/03/31 09:54:44;;;;;;;4.40;3.55;;;;;;;;;;5106991;28;20040;-76
2023/03/31 09:57:38;;;;;;;10.05;3.92;;;;;;;;;;5106604;28;20048;-78
2023/03/31 10:00:20;;;;;;;13.65;5.18;;;;;;;;;;5106822;28;20421;-77
2023/03/31 10:02:52;;;;;;;10.40;3.83;;;;;;;;;;5107074;28;20113;-78
2023/03/31 10:05:36;;;;;;;9.18;4.13;;;;;;;;;;5091651;28;20040;-77
2023/03/31 10:08:27;;;;;;;9.13;3.78;;;;;;;;;;5086938;28;20516;-74
2023/03/31 10:11:10;;;;;;;12.00;5.15;;;;;;;;;;5090451;28;20048;-76
2023/03/31 10:13:47;;;;;;;12.00;4.05;;;;;;;;;;5090959;28;20063;-75
2023/03/31 10:16:44;;;;;;;13.07;4.47;;;;;;;;;;5090744;28;20050;-75
2023/03/31 10:19:34;;;;;;;15.48;5.03;;;;;;;;;;5062086;28;20051;-77
2023/03/31 10:22:15;;;;;;;13.32;3.90;;;;;;;;;;5089761;28;20506;-74
2023/03/31 10:24:48;;;;;;;5.53;3.45;;;;;;;;;;5089797;28;20055;-75
2023/03/31 10:27:23;;;;;;;22.40;4.75;;;;;;;;;;5090597;28;20047;-75
2023/03/31 10:30:00;;;;;;;36.28;5.93;;;;;;;;;;5091206;28;20051;-77
2023/03/31 10:32:32;;;;;;;25.50;6.72;;;;;;;;;;5106793;28;20564;-76
2023/03/31 10:35:20;;;;;;;76.38;6.10;;;;;;;;;;5110185;28;20448;-76
2023/03/31 10:37:56;;;;;;;37.70;6.00;;;;;;;;;;5109864;28;20066;-76
2023/03/31 10:40:31;;;;;;;19.30;5.95;;;;;;;;;;5110337;28;20059;-77
2023/03/31 10:43:17;;;;;;;77.43;5.43;;;;;;;;;;5106460;28;20044;-76
2023/03/31 10:45:58;;;;;;;37.53;5.72;;;;;;;;;;5090135;28;20048;-76
2023/03/31 10:48:41;;;;;;;22.95;6.00;;;;;;;;;;5089753;28;20055;-76
2023/03/31 10:51:25;;;;;;;37.30;11.70;;;;;;;;;;5090009;28;20527;-74
2023/03/31 10:54:05;;;;;;;39.22;6.50;;;;;;;;;;5098840;28;20122;-76
2023/03/31 10:56:46;;;;;;;28.60;5.00;;;;;;;;;;5080132;28;20052;-76
2023/03/31 10:59:47;;;;;;;26.25;5.88;;;;;;;;;;5098471;28;20039;-76
2023/03/31 11:02:28;;;;;;;21.45;5.90;;;;;;;;;;5099996;28;20036;-77
2023/03/31 11:05:21;;;;;;;9.82;4.95;;;;;;;;;;5106505;28;20046;-76
2023/03/31 11:08:03;;;;;;;24.00;6.35;;;;;;;;;;5092152;28;20075;-76
2023/03/31 11:11:11;;;;;;;28.30;5.85;;;;;;;;;;5099102;28;20043;-78
2023/03/31 11:14:09;;;;;;;23.58;5.78;;;;;;;;;;5099802;28;20048;-76
2023/03/31 11:17:06;;;;;;;22.55;7.45;;;;;;;;;;5109473;28;20048;-77
2023/03/31 11:19:41;;;;;;;26.08;7.30;;;;;;;;;;5108394;28;20052;-74
2023/03/31 11:22:20;;;;;;;23.67;8.70;;;;;;;;;;5109672;28;20410;-78
2023/03/31 11:25:27;;;;;;;32.10;9.10;;;;;;;;;;5109295;28;20051;-77
2023/03/31 11:28:35;;;;;;;23.73;9.95;;;;;;;;;;5105641;28;20743;-76
2023/03/31 11:31:50;;;;;;;15.75;8.30;;;;;;;;;;5095835;28;20040;-75
2023/03/31 11:34:41;;;;;;;21.63;9.40;;;;;;;;;;5079525;28;20514;-77
2023/03/31 11:37:44;;;;;;;18.60;8.45;;;;;;;;;;5088017;28;20051;-76
2023/03/31 11:40:41;;;;;;;10.65;5.63;;;;;;;;;;5088720;28;20430;-76
2023/03/31 11:43:47;;;;;;;13.27;6.72;;;;;;;;;;5088702;28;20502;-78
2023/03/31 11:46:29;;;;;;;12.60;5.57;;;;;;;;;;5087091;28;20060;-77
2023/03/31 11:49:37;;;;;;;12.38;4.35;;;;;;;;;;5089233;28;20040;-76
2023/03/31 11:52:18;;;;;;;10.82;4.63;;;;;;;;;;5088670;28;20044;-77
2023/03/31 11:54:57;;;;;;;10.25;3.90;;;;;;;;;;5070516;28;20052;-78
2023/03/31 11:57:40;;;;;;;;;;;;;;;;;;5088549;28;20052;-75
2023/03/31 12:00:29;;;;;;;10.00;3.67;;;;;;;;;;5088187;28;19927;-77
2023/03/31 12:03:33;;;;;;;7.13;4.07;;;;;;;;;;5088138;28;20048;-75
2023/03/31 12:06:15;;;;;;;10.23;4.03;;;;;;;;;;5087908;28;20044;-75
2023/03/31 12:08:59;;;;;;;7.10;3.53;;;;;;;;;;5087971;28;20062;-79
2023/03/31 12:11:39;;;;;;;8.02;3.50;;;;;;;;;;5088587;28;20036;-76
2023/03/31 12:14:19;;;;;;;13.52;3.80;;;;;;;;;;5088071;28;20519;-74
2023/03/31 12:17:14;;;;;;;8.80;5.10;;;;;;;;;;5070177;28;20043;-76
2023/03/31 12:20:05;;;;;;;7.43;5.00;;;;;;;;;;5070051;28;20055;-77
2023/03/31 12:22:54;;;;;;;18.35;5.57;;;;;;;;;;5087403;28;20032;-79
2023/03/31 12:25:27;;;;;;;8.50;5.05;;;;;;;;;;5088577;28;20051;-78
2023/03/31 12:27:58;;;;;;;7.63;4.93;;;;;;;;;;5087480;28;20513;-77
2023/03/31 12:30:41;;;;;;;10.30;4.88;;;;;;;;;;5087906;28;20055;-78
2023/03/31 12:33:41;;;;;;;12.77;6.40;;;;;;;;;;5087543;28;20052;-77
2023/03/31 12:36:17;;;;;;;12.68;6.20;;;;;;;;;;5088086;28;20043;-77
2023/03/31 12:39:08;;;;;;;9.07;6.03;;;;;;;;;;5087820;28;20047;-79
2023/03/31 12:42:01;;;;;;;11.00;5.50;;;;;;;;;;5088065;28;20052;-76
2023/03/31 12:44:47;;;;;;;12.57;7.40;;;;;;;;;;5087988;28;20063;-77
2023/03/31 12:47:49;;;;;;;10.55;5.80;;;;;;;;;;5087655;28;20051;-76
2023/03/31 12:50:50;;;;;;;10.82;6.00;;;;;;;;;;5087938;28;20044;-78
2023/03/31 12:53:42;;;;;;;17.40;6.55;;;;;;;;;;5088225;28;20050;-75
2023/03/31 12:56:12;;;;;;;10.25;6.40;;;;;;;;;;5086981;28;20044;-77
2023/03/31 12:58:44;;;;;;;9.40;5.88;;;;;;;;;;5087749;28;20047;-79
2023/03/31 13:01:25;;;;;;;9.13;6.10;;;;;;;;;;5087169;28;20070;-77
2023/03/31 13:04:10;;;;;;;15.55;6.93;;;;;;;;;;5087306;28;20078;-78
2023/03/31 13:06:40;;;;;;;17.17;7.75;;;;;;;;;;5087321;28;20368;-79
2023/03/31 13:09:12;;;;;;;10.20;6.20;;;;;;;;;;5087709;28;20047;-77
2023/03/31 13:11:49;;;;;;;10.18;6.72;;;;;;;;;;5069608;28;20058;-77
2023/03/31 13:14:25;;;;;;;10.95;6.50;;;;;;;;;;5087001;28;20043;-77
2023/03/31 13:17:17;;;;;;;9.15;6.15;;;;;;;;;;5086681;28;20044;-78
2023/03/31 13:19:49;;;;;;;10.45;5.82;;;;;;;;;;5087066;28;20047;-80
2023/03/31 13:22:31;;;;;;;8.98;5.80;;;;;;;;;;5069389;28;20048;-77
2023/03/31 13:25:30;;;;;;;8.95;5.68;;;;;;;;;;5085573;28;20426;-80
2023/03/31 13:28:15;;;;;;;11.90;5.43;;;;;;;;;;5086418;28;20044;-77
2023/03/31 13:30:49;;;;;;;10.48;4.60;;;;;;;;;;5087510;28;20055;-78
2023/03/31 13:33:27;;;;;;;18.70;6.35;;;;;;;;;;5087477;28;20055;-79
2023/03/31 13:36:20;;;;;;;11.00;5.00;;;;;;;;;;5086759;28;20056;-76
2023/03/31 13:39:08;;;;;;;10.32;5.85;;;;;;;;;;5087064;28;20044;-80
2023/03/31 13:41:50;;;;;;;10.93;5.18;;;;;;;;;;5086815;28;20055;-76
2023/03/31 13:44:39;;;;;;;11.25;5.05;;;;;;;;;;5092119;28;20501;-78
2023/03/31 13:47:37;;;;;;;11.15;4.68;;;;;;;;;;5093695;28;20051;-77
2023/03/31 13:50:32;;;;;;;8.82;4.25;;;;;;;;;;5064073;28;20052;-78
2023/03/31 13:53:38;;;;;;;15.32;6.43;;;;;;;;;;5074800;28;20054;-79
2023/03/31 13:56:23;;;;;;;;;;;;;;;;;;5094074;28;20051;-81
2023/03/31 13:59:27;;;;;;;5.88;3.83;;;;;;;;;;5093231;28;19924;-77
2023/03/31 14:02:30;;;;;;;6.18;3.30;;;;;;;;;;5093437;28;20048;-78
2023/03/31 14:05:22;;;;;;;6.20;3.10;;;;;;;;;;5093946;28;20032;-75
2023/03/31 14:08:05;;;;;;;5.72;3.50;;;;;;;;;;5093385;28;20056;-74
2023/03/31 14:10:40;;;;;;;7.25;3.28;;;;;;;;;;5093995;28;20506;-78
2023/03/31 14:13:17;;;;;;;5.05;3.38;;;;;;;;;;5093619;28;20541;-78
2023/03/31 14:15:51;;;;;;;6.35;3.42;;;;;;;;;;5093832;28;20052;-76
2023/03/31 14:18:32;;;;;;;5.82;4.07;;;;;;;;;;5075473;28;20044;-74
2023/03/31 14:21:03;;;;;;;9.88;3.95;;;;;;;;;;5092920;28;20411;-79
2023/03/31 14:23:53;;;;;;;4.72;3.53;;;;;;;;;;5074863;28;20063;-75
2023/03/31 14:26:33;;;;;;;6.72;4.50;;;;;;;;;;5092950;28;20059;-75
2023/03/31 14:29:38;;;;;;;10.60;4.85;;;;;;;;;;5093591;28;20498;-75
2023/03/31 14:32:30;;;;;;;12.20;4.30;;;;;;;;;;5009431;28;20430;-79
2023/03/31 14:35:27;;;;;;;9.55;3.92;;;;;;;;;;5093189;28;20446;-81
2023/03/31 14:38:01;;;;;;;10.65;4.55;;;;;;;;;;5094223;28;20526;-80
2023/03/31 14:40:31;;;;;;;4.53;3.80;;;;;;;;;;5093135;28;20060;-77
2023/03/31 14:43:02;;;;;;;6.63;4.22;;;;;;;;;;5092329;28;20055;-77
2023/03/31 14:45:33;;;;;;;5.85;4.00;;;;;;;;;;5093745;28;20052;-78
2023/03/31 14:48:13;;;;;;;10.32;3.95;;;;;;;;;;5093091;28;20438;-77
2023/03/31 14:50:45;;;;;;;7.85;4.00;;;;;;;;;;5092984;28;20047;-78
2023/03/31 14:53:17;;;;;;;6.93;3.58;;;;;;;;;;5093045;28;20058;-77
2023/03/31 14:55:48;;;;;;;4.75;3.53;;;;;;;;;;5072299;28;20048;-79
2023/03/31 14:58:34;;;;;;;5.35;3.53;;;;;;;;;;5090029;28;20032;-79
2023/03/31 15:01:07;;;;;;;5.57;3.53;;;;;;;;;;5090613;28;20047;-82
2023/03/31 15:03:40;;;;;;;4.13;3.60;;;;;;;;;;5089879;28;20048;-80
2023/03/31 15:06:10;;;;;;;4.55;3.47;;;;;;;;;;5089802;28;20573;-78
2023/03/31 15:08:41;;;;;;;5.88;3.15;;;;;;;;;;5090010;28;20048;-75
2023/03/31 15:11:17;;;;;;;5.35;4.18;;;;;;;;;;5089218;28;20396;-75
2023/03/31 15:13:51;;;;;;;8.05;3.38;;;;;;;;;;5070420;28;20625;-75
2023/03/31 15:16:45;;;;;;;6.03;3.35;;;;;;;;;;5089219;28;20040;-78
2023/03/31 15:19:23;;;;;;;4.60;2.60;;;;;;;;;;5090029;28;20044;-79
2023/03/31 15:21:56;;;;;;;5.88;3.10;;;;;;;;;;5089112;28;20495;-80
2023/03/31 15:24:30;;;;;;;10.18;6.97;;;;;;;;;;5089572;28;20049;-78
2023/03/31 15:27:30;;;;;;;4.50;2.65;;;;;;;;;;5089491;28;20048;-78
2023/03/31 15:30:14;;;;;;;4.93;2.50;;;;;;;;;;5089287;28;20044;-77
2023/03/31 15:32:45;;;;;;;5.22;2.50;;;;;;;;;;5089641;28;20051;-75
2023/03/31 15:35:32;;;;;;;8.35;3.13;;;;;;;;;;5088914;28;20052;-78
2023/03/31 15:38:05;;;;;;;8.32;2.83;;;;;;;;;;5088254;28;20063;-76
2023/03/31 15:40:39;;;;;;;3.88;2.13;;;;;;;;;;5088897;28;20526;-79
2023/03/31 15:43:27;;;;;;;4.20;2.22;;;;;;;;;;5071006;28;20071;-78
2023/03/31 15:46:00;;;;;;;4.47;2.75;;;;;;;;;;5088698;28;20397;-79
2023/03/31 15:48:35;;;;;;;8.25;2.38;;;;;;;;;;5089260;28;20396;-77